Time;durP1;ratioP1;P1;durP2;ratioP2;P2;SDS_P1;SDS_P2;PMS_P1;PMS_P2;Temp;Humidity;BMP_temperature;BMP_pressure;BME280_temperature;BME280_humidity;BME280_pressure;Samples;Min_cycle;Max_cycle;Signal;HPM_P1;HPM_P2
2022/10/20 00:00:40;;;;;;;13.18;5.40;;;;;;;;;;4935377;29;20087;-62
2022/10/20 00:03:06;;;;;;;11.45;5.45;;;;;;;;;;4916014;29;20058;-61
2022/10/20 00:05:32;;;;;;;11.88;5.25;;;;;;;;;;4936003;29;20048;-61
2022/10/20 00:07:58;;;;;;;11.85;4.93;;;;;;;;;;4931018;29;20052;-61
2022/10/20 00:10:24;;;;;;;9.45;4.55;;;;;;;;;;4921716;29;20055;-61
2022/10/20 00:12:50;;;;;;;8.60;5.45;;;;;;;;;;4915110;29;20047;-61
2022/10/20 00:15:16;;;;;;;10.30;4.50;;;;;;;;;;4936299;29;20063;-61
2022/10/20 00:17:43;;;;;;;12.23;5.30;;;;;;;;;;4936180;29;20050;-61
2022/10/20 00:20:10;;;;;;;7.90;4.95;;;;;;;;;;4935151;29;21194;-61
2022/10/20 00:22:36;;;;;;;13.30;5.20;;;;;;;;;;4915262;29;20112;-61
2022/10/20 00:25:05;;;;;;;12.43;5.38;;;;;;;;;;4916923;29;20052;-61
2022/10/20 00:27:31;;;;;;;11.27;5.15;;;;;;;;;;4929901;29;20417;-62
2022/10/20 00:29:57;;;;;;;9.23;5.65;;;;;;;;;;4933833;29;20075;-62
2022/10/20 00:32:23;;;;;;;8.30;4.80;;;;;;;;;;4923577;29;20047;-61
2022/10/20 00:34:49;;;;;;;12.90;5.45;;;;;;;;;;4908849;29;20048;-61
2022/10/20 00:37:15;;;;;;;10.70;5.10;;;;;;;;;;4917650;29;20408;-62
2022/10/20 00:39:41;;;;;;;13.57;5.25;;;;;;;;;;4934027;29;20036;-62
2022/10/20 00:42:07;;;;;;;12.20;5.82;;;;;;;;;;4917796;29;20491;-61
2022/10/20 00:44:45;;;;;;;8.77;5.00;;;;;;;;;;4935243;29;20412;-61
2022/10/20 00:47:13;;;;;;;9.25;5.28;;;;;;;;;;4934135;29;20508;-62
2022/10/20 00:49:44;;;;;;;8.70;4.30;;;;;;;;;;4935458;29;20083;-63
2022/10/20 00:52:10;;;;;;;;;;;7.10;99.90;;;;;;4926938;29;20134;-62
2022/10/20 00:54:36;;;;;;;10.43;5.07;;;;;;;;;;4916648;29;20335;-62
2022/10/20 00:57:03;;;;;;;8.48;5.68;;;;;;;;;;4926820;29;20048;-62
2022/10/20 00:59:31;;;;;;;15.85;5.57;;;;;;;;;;4935084;29;20047;-63
2022/10/20 01:01:57;;;;;;;9.13;4.72;;;;;;;;;;4933625;29;20396;-62
2022/10/20 01:04:24;;;;;;;12.27;4.72;;;;;;;;;;4934997;29;20397;-62
2022/10/20 01:06:50;;;;;;;8.98;4.50;;;;;;;;;;4934693;29;20051;-62
2022/10/20 01:09:16;;;;;;;11.48;5.15;;;;;;;;;;4916839;29;20051;-62
2022/10/20 01:11:49;;;;;;;13.60;4.95;;;;;;;;;;4934132;29;20122;-62
2022/10/20 01:14:18;;;;;;;8.90;4.45;;;;;;;;;;4929571;29;20052;-61
2022/10/20 01:16:49;;;;;;;10.52;5.70;;;;;;;;;;4919012;29;20075;-62
2022/10/20 01:19:31;;;;;;;15.38;5.32;;;;;;;;;;4924998;29;20063;-61
2022/10/20 01:22:19;;;;;;;13.80;5.25;;;;;;;;;;4901290;29;20044;-61
2022/10/20 01:24:51;;;;;;;11.80;5.57;;;;;;;;;;4915867;29;20456;-61
2022/10/20 01:27:46;;;;;;;9.50;5.38;;;;;;;;;;4917109;29;20143;-61
2022/10/20 01:30:17;;;;;;;8.43;5.63;;;;;;;;;;4884407;29;20055;-61
2022/10/20 01:32:43;;;;;;;12.52;5.45;;;;;;;;;;4922582;29;20404;-61
2022/10/20 01:35:15;;;;;;;10.85;5.00;;;;;;;;;;4932366;29;20126;-61
2022/10/20 01:37:49;;;;;;;16.17;5.38;;;;;;;;;;4932066;29;20491;-61
2022/10/20 01:40:26;;;;;;;8.80;5.25;;;;;;;;;;4916917;29;20082;-62
2022/10/20 01:42:53;;;;;;;12.27;5.18;;;;;;;;;;4932785;29;20070;-61
2022/10/20 01:45:21;;;;;;;8.68;5.80;;;;;;;;;;4900278;29;20044;-61
2022/10/20 01:47:48;;;;;;;9.38;4.80;;;;;;;;;;4916157;29;20125;-61
2022/10/20 01:50:15;;;;;;;11.57;5.30;;;;;;;;;;4923476;29;20054;-61
2022/10/20 01:52:41;;;;;;;13.38;4.78;;;;;;;;;;4922181;29;20072;-62
2022/10/20 01:55:14;;;;;;;13.82;5.38;;;;;;;;;;4927356;29;20071;-62
2022/10/20 01:58:17;;;;;;;9.02;5.35;;;6.90;99.90;;;;;;4933975;29;20046;-62
2022/10/20 02:00:44;;;;;;;15.98;5.75;;;;;;;;;;4930070;29;20413;-61
2022/10/20 02:03:27;;;;;;;8.93;4.70;;;;;;;;;;4913660;29;20834;-62
2022/10/20 02:06:13;;;;;;;15.05;5.93;;;;;;;;;;4918524;29;20067;-61
2022/10/20 02:08:43;;;;;;;15.00;5.68;;;;;;;;;;4915295;29;20079;-61
2022/10/20 02:11:14;;;;;;;10.18;5.45;;;;;;;;;;4930132;29;20458;-62
2022/10/20 02:13:40;;;;;;;;;;;;;;;;;;4920364;29;20500;-61
2022/10/20 02:16:14;;;;;;;11.13;5.25;;;;;;;;;;4932713;29;19923;-61
2022/10/20 02:18:41;;;;;;;11.23;5.20;;;;;;;;;;4931672;29;20051;-61
2022/10/20 02:21:07;;;;;;;10.82;5.25;;;;;;;;;;4933135;29;20039;-61
2022/10/20 02:23:36;;;;;;;12.13;5.30;;;;;;;;;;4934017;29;20418;-61
2022/10/20 02:26:05;;;;;;;12.45;5.90;;;;;;;;;;4933028;29;20142;-62
2022/10/20 02:28:33;;;;;;;9.93;5.85;;;;;;;;;;4916406;29;20138;-62
2022/10/20 02:30:59;;;;;;;13.80;5.30;;;;;;;;;;4929484;29;20036;-62
2022/10/20 02:33:26;;;;;;;10.73;5.15;;;;;;;;;;4924589;29;20056;-61
2022/10/20 02:35:55;;;;;;;11.70;5.30;;;;;;;;;;4916069;29;20056;-62
2022/10/20 02:38:21;;;;;;;11.83;5.23;;;;;;;;;;4919267;29;20048;-61
2022/10/20 02:40:47;;;;;;;9.23;5.80;;;;;;;;;;4919044;29;20044;-61
2022/10/20 02:43:13;;;;;;;10.55;5.88;;;;;;;;;;4935059;29;20047;-61
2022/10/20 02:45:39;;;;;;;8.68;5.10;;;;;;;;;;4936417;29;20531;-61
2022/10/20 02:48:08;;;;;;;11.63;4.78;;;;;;;;;;4929426;29;20059;-61
2022/10/20 02:50:34;;;;;;;8.18;4.93;;;;;;;;;;4937797;29;20071;-61
2022/10/20 02:53:00;;;;;;;13.10;5.70;;;;;;;;;;4920202;29;20523;-62
2022/10/20 02:55:26;;;;;;;13.20;5.30;;;;;;;;;;4918695;29;20088;-61
2022/10/20 02:57:52;;;;;;;10.32;5.30;;;;;;;;;;4918348;29;20179;-61
2022/10/20 03:00:19;;;;;;;9.82;5.10;;;;;;;;;;4926792;29;20050;-61
2022/10/20 03:02:46;;;;;;;11.13;4.85;;;;;;;;;;4936681;29;20050;-61
2022/10/20 03:05:15;;;;;;;12.13;5.72;;;;;;;;;;4936885;29;20092;-61
2022/10/20 03:07:41;;;;;;;10.80;4.75;;;;;;;;;;4936772;29;20047;-61
2022/10/20 03:10:07;;;;;;;9.23;5.18;;;;;;;;;;4937117;29;20051;-61
2022/10/20 03:12:33;;;;;;;9.98;5.32;;;;;;;;;;4935946;29;20416;-61
2022/10/20 03:14:59;;;;;;;11.70;6.20;;;;;;;;;;4923628;29;20056;-61
2022/10/20 03:17:25;;;;;;;10.65;5.15;;;;;;;;;;4935869;29;20048;-61
2022/10/20 03:19:51;;;;;;;10.90;4.88;;;;;;;;;;4936426;29;20050;-61
2022/10/20 03:22:17;;;;;;;11.55;5.50;;;;;;;;;;4936607;29;20050;-61
2022/10/20 03:24:43;;;;;;;14.38;4.93;;;;;;;;;;4937162;29;20499;-61
2022/10/20 03:27:09;;;;;;;11.95;5.57;;;;;;;;;;4936126;29;20805;-62
2022/10/20 03:29:35;;;;;;;9.02;5.03;;;;;;;;;;4936099;29;20496;-61
2022/10/20 03:32:01;;;;;;;9.50;5.50;;;;;;;;;;4935829;29;20115;-61
2022/10/20 03:34:27;;;;;;;11.25;5.28;;;;;;;;;;4927865;29;20044;-61
2022/10/20 03:36:54;;;;;;;10.23;5.60;;;;;;;;;;4933967;29;20090;-61
2022/10/20 03:39:20;;;;;;;12.88;4.95;;;;;;;;;;4935741;29;20489;-61
2022/10/20 03:41:45;;;;;;;12.93;5.75;;;;;;;;;;4928112;29;20076;-61
2022/10/20 03:44:12;;;;;;;13.82;6.40;;;;;;;;;;4919500;29;20047;-61
2022/10/20 03:46:38;;;;;;;13.00;6.97;;;;;;;;;;4935522;29;20046;-62
2022/10/20 03:49:04;;;;;;;11.10;5.90;;;;;;;;;;4933217;29;20051;-62
2022/10/20 03:51:30;;;;;;;11.73;6.03;;;;;;;;;;4909358;29;20066;-62
2022/10/20 03:53:56;;;;;;;13.73;6.32;;;;;;;;;;4934128;29;20052;-62
2022/10/20 03:56:22;;;;;;;11.10;6.57;;;;;;;;;;4935445;29;20047;-61
2022/10/20 03:58:48;;;;;;;10.90;5.68;;;;;;;;;;4935479;29;20511;-62
2022/10/20 04:01:15;;;;;;;15.98;5.80;;;;;;;;;;4935170;29;20055;-62
2022/10/20 04:03:42;;;;;;;18.60;6.38;;;;;;;;;;4935628;29;20057;-62
2022/10/20 04:06:08;;;;;;;9.68;6.07;;;;;;;;;;4917291;29;20055;-62
2022/10/20 04:08:34;;;;;;;14.80;6.53;;;;;;;;;;4919259;29;20044;-61
2022/10/20 04:11:00;;;;;;;8.98;5.75;;;;;;;;;;4934534;29;20143;-62
2022/10/20 04:13:26;;;;;;;14.45;7.07;;;;;;;;;;4934274;29;20093;-62
2022/10/20 04:15:52;;;;;;;13.48;6.93;;;;;;;;;;4933655;29;20052;-62
2022/10/20 04:18:18;;;;;;;13.23;5.57;;;;;;;;;;4935145;29;20048;-62
2022/10/20 04:20:44;;;;;;;13.52;6.47;;;;;;;;;;4918505;29;20074;-62
2022/10/20 04:23:10;;;;;;;13.02;6.68;;;;;;;;;;4918527;29;20075;-62
2022/10/20 04:25:39;;;;;;;11.50;6.55;;;;;;;;;;4916929;29;20044;-61
2022/10/20 04:28:05;;;;;;;14.23;6.13;;;;;;;;;;4917097;29;20123;-61
2022/10/20 04:30:31;;;;;;;12.63;6.70;;;;;;;;;;4916797;29;20040;-61
2022/10/20 04:32:57;;;;;;;14.80;7.40;;;;;;;;;;4933377;29;20449;-61
2022/10/20 04:35:23;;;;;;;13.10;7.05;;;;;;;;;;4934144;29;20492;-61
2022/10/20 04:37:49;;;;;;;12.32;6.82;;;;;;;;;;4918890;29;20059;-61
2022/10/20 04:40:15;;;;;;;13.98;7.40;;;;;;;;;;4921809;29;20131;-61
2022/10/20 04:42:41;;;;;;;14.40;6.72;;;;;;;;;;4932729;29;20452;-61
2022/10/20 04:45:07;;;;;;;14.30;6.63;;;;;;;;;;4935086;29;20108;-61
2022/10/20 04:47:36;;;;;;;15.20;7.57;;;;;;;;;;4934200;29;20126;-61
2022/10/20 04:50:02;;;;;;;10.30;7.00;;;;;;;;;;4927902;29;20073;-61
2022/10/20 04:52:28;;;;;;;12.80;8.00;;;;;;;;;;4929870;29;20056;-62
2022/10/20 04:54:54;;;;;;;11.50;7.70;;;;;;;;;;4919666;29;20063;-62
2022/10/20 04:57:20;;;;;;;13.43;8.13;;;;;;;;;;4925550;29;20051;-61
2022/10/20 04:59:46;;;;;;;14.02;8.30;;;;;;;;;;4934522;29;20050;-61
2022/10/20 05:02:12;;;;;;;17.20;8.63;;;;;;;;;;4934219;29;20055;-61
2022/10/20 05:04:39;;;;;;;17.77;8.73;;;;;;;;;;4928873;29;20400;-61
2022/10/20 05:07:05;;;;;;;12.20;7.72;;;;;;;;;;4931652;29;20059;-61
2022/10/20 05:09:31;;;;;;;14.65;9.13;;;;;;;;;;4909189;29;20505;-61
2022/10/20 05:11:58;;;;;;;18.33;9.13;;;;;;;;;;4916265;29;20131;-61
2022/10/20 05:14:24;;;;;;;12.88;8.57;;;;;;;;;;4915779;29;20671;-61
2022/10/20 05:16:50;;;;;;;13.70;8.35;;;;;;;;;;4916078;29;20071;-60
2022/10/20 05:19:16;;;;;;;15.68;9.32;;;;;;;;;;4925854;29;20070;-61
2022/10/20 05:21:43;;;;;;;13.85;9.18;;;;;;;;;;4933357;29;20397;-61
2022/10/20 05:24:12;;;;;;;14.77;9.25;;;;;;;;;;4933973;29;20071;-61
2022/10/20 05:26:38;;;;;;;13.63;8.48;;;;;;;;;;4917940;29;20167;-61
2022/10/20 05:29:06;;;;;;;18.60;9.93;;;;;;;;;;4922787;29;20547;-61
2022/10/20 05:31:35;;;;;;;18.77;10.27;;;;;;;;;;4926265;29;20055;-61
2022/10/20 05:34:01;;;;;;;20.88;9.75;;;;;;;;;;4934673;29;20098;-61
2022/10/20 05:36:27;;;;;;;15.40;10.27;;;;;;;;;;4932947;29;20079;-61
2022/10/20 05:38:54;;;;;;;18.63;10.40;;;;;;;;;;4934376;29;20153;-61
2022/10/20 05:41:22;;;;;;;17.33;9.55;;;;;;;;;;4935028;29;20057;-61
2022/10/20 05:43:49;;;;;;;17.33;9.40;;;;;;;;;;4924645;29;20051;-61
2022/10/20 05:46:15;;;;;;;15.93;10.23;;;;;;;;;;4922890;29;20055;-61
2022/10/20 05:48:41;;;;;;;14.38;10.93;;;;;;;;;;4918595;29;20040;-63
2022/10/20 05:51:08;;;;;;;15.43;10.30;;;;;;;;;;4927152;29;20480;-61
2022/10/20 05:53:37;;;;;;;28.63;11.25;;;;;;;;;;4934743;29;20122;-61
2022/10/20 05:56:07;;;;;;;17.48;11.02;;;;;;;;;;4934427;29;20051;-61
2022/10/20 05:58:33;;;;;;;17.10;11.23;;;;;;;;;;4934877;29;20047;-61
2022/10/20 06:01:12;;;;;;;15.77;10.98;;;;;;;;;;4916852;29;20186;-61
2022/10/20 06:03:38;;;;;;;19.13;11.07;;;;;;;;;;4933484;29;20423;-61
2022/10/20 06:06:04;;;;;;;16.27;10.23;;;;;;;;;;4924849;29;20528;-62
2022/10/20 06:08:31;;;;;;;15.43;10.77;;;;;;;;;;4926004;29;20044;-61
2022/10/20 06:11:02;;;;;;;19.58;11.13;;;;;;;;;;4918415;29;20068;-61
2022/10/20 06:13:28;;;;;;;;;;;;;;;;;;4920017;29;20052;-62
2022/10/20 06:15:54;;;;;;;18.10;9.10;;;;;;;;;;4915595;29;19930;-62
2022/10/20 06:18:20;;;;;;;24.20;11.70;;;;;;;;;;4931361;29;20091;-61
2022/10/20 06:20:46;;;;;;;20.20;11.90;;;;;;;;;;4936964;29;20047;-62
2022/10/20 06:23:12;;;;;;;15.90;10.20;;;;;;;;;;4937315;29;20047;-62
2022/10/20 06:25:38;;;;;;;20.52;11.32;;;;;;;;;;4937732;29;20043;-62
2022/10/20 06:28:04;;;;;;;19.48;11.95;;;;;;;;;;4930103;29;20465;-62
2022/10/20 06:30:30;;;;;;;17.85;10.35;;;;;;;;;;4932518;29;20048;-62
2022/10/20 06:32:56;;;;;;;18.80;12.25;;;;;;;;;;4919079;29;20107;-61
2022/10/20 06:35:22;;;;;;;20.25;11.73;;;;;;;;;;4929674;29;20052;-61
2022/10/20 06:37:48;;;;;;;17.42;11.30;;;;;;;;;;4921158;29;20060;-61
2022/10/20 06:40:14;;;;;;;23.48;11.80;;;;;;;;;;4922454;29;20381;-62
2022/10/20 06:42:40;;;;;;;19.42;12.30;;;;;;;;;;4927617;29;20103;-61
2022/10/20 06:45:06;;;;;;;18.05;12.15;;;;;;;;;;4921107;29;20044;-62
2022/10/20 06:47:32;;;;;;;17.25;11.57;;;;;;;;;;4902444;29;20071;-61
2022/10/20 06:49:58;;;;;;;28.63;13.15;;;;;;;;;;4904763;29;20078;-62
2022/10/20 06:52:24;;;;;;;15.43;11.27;;;;;;;;;;4937903;29;20051;-61
2022/10/20 06:54:51;;;;;;;23.60;12.52;;;;;;;;;;4938100;29;20583;-61
2022/10/20 06:57:17;;;;;;;14.40;10.68;;;;;;;;;;4932874;29;20051;-62
2022/10/20 06:59:43;;;;;;;17.75;12.70;;;;;;;;;;4935873;29;20044;-61
2022/10/20 07:02:11;;;;;;;20.98;12.05;;;;;;;;;;4930775;29;20050;-62
2022/10/20 07:04:37;;;;;;;19.08;12.13;;;;;;;;;;4937502;29;20052;-61
2022/10/20 07:07:03;;;;;;;18.33;12.00;;;;;;;;;;4934964;29;20485;-62
2022/10/20 07:09:29;;;;;;;15.93;10.45;;;;;;;;;;4932739;29;20095;-61
2022/10/20 07:11:55;;;;;;;16.25;11.45;;;;;;;;;;4937037;29;20059;-61
2022/10/20 07:14:21;;;;;;;20.98;11.90;;;;;;;;;;4936794;29;20126;-62
2022/10/20 07:16:47;;;;;;;18.23;11.93;;;;;;;;;;4933006;29;20048;-62
2022/10/20 07:19:13;;;;;;;17.60;10.70;;;;;;;;;;4932018;29;20122;-61
2022/10/20 07:21:39;;;;;;;18.55;12.45;;;;;;;;;;4921203;29;20091;-61
2022/10/20 07:24:06;;;;;;;16.30;11.38;;;;;;;;;;4919574;29;20064;-61
2022/10/20 07:26:34;;;;;;;18.55;11.82;;;;;;;;;;4934246;29;20500;-61
2022/10/20 07:29:01;;;;;;;17.58;12.35;;;;;;;;;;4917776;29;20067;-61
2022/10/20 07:31:27;;;;;;;17.15;12.20;;;;;;;;;;4924280;29;20489;-61
2022/10/20 07:33:54;;;;;;;17.50;11.88;;;;;;;;;;4940714;29;20109;-61
2022/10/20 07:36:22;;;;;;;17.65;11.70;;;;;;;;;;4932790;29;20080;-61
2022/10/20 07:38:48;;;;;;;19.27;10.90;;;;;;;;;;4928418;29;20111;-61
2022/10/20 07:41:15;;;;;;;15.35;11.00;;;;;;;;;;4919170;29;20048;-61
2022/10/20 07:43:41;;;;;;;15.43;11.55;;;;;;;;;;4917747;29;20044;-61
2022/10/20 07:46:07;;;;;;;15.60;10.63;;;;;;;;;;4918244;29;20135;-61
2022/10/20 07:48:33;;;;;;;17.92;11.57;;;;;;;;;;4913663;29;20509;-61
2022/10/20 07:51:33;;;;;;;14.25;10.63;;;;;;;;;;4916714;29;20086;-61
2022/10/20 07:54:06;;;;;;;16.35;11.82;;;;;;;;;;4876946;29;20060;-62
2022/10/20 07:56:34;;;;;;;18.35;11.23;;;;;;;;;;4918771;29;20058;-62
2022/10/20 07:59:00;;;;;;;17.60;10.73;;;;;;;;;;4917204;29;20048;-61
2022/10/20 08:01:26;;;;;;;16.13;11.38;;;;;;;;;;4932161;29;20047;-62
2022/10/20 08:03:52;;;;;;;18.27;11.40;;;;;;;;;;4936101;29;20091;-62
2022/10/20 08:06:18;;;;;;;17.92;11.13;;;;;;;;;;4936506;29;20047;-62
2022/10/20 08:08:44;;;;;;;15.25;11.48;;;;;;;;;;4934564;29;20083;-62
2022/10/20 08:11:10;;;;;;;16.67;11.75;;;;;;;;;;4933251;29;20050;-61
2022/10/20 08:13:38;;;;;;;15.77;11.43;;;;;;;;;;4933201;29;20462;-61
2022/10/20 08:16:04;;;;;;;20.85;13.15;;;;;;;;;;4935254;29;20059;-61
2022/10/20 08:18:30;;;;;;;16.70;12.00;;;;;;;;;;4917834;29;20377;-61
2022/10/20 08:21:26;;;;;;;16.27;10.40;;;;;;;;;;4917395;29;20047;-62
2022/10/20 08:23:52;;;;;;;14.00;10.00;;;;;;;;;;4922469;29;20405;-62
2022/10/20 08:26:20;;;;;;;13.85;9.10;;;;;;;;;;4931782;29;20060;-62
2022/10/20 08:28:46;;;;;;;14.20;9.80;;;;;;;;;;4933186;29;20055;-62
2022/10/20 08:31:14;;;;;;;19.65;10.38;;;;;;;;;;4934881;29;20040;-62
2022/10/20 08:33:40;;;;;;;16.92;11.15;;;;;;;;;;4918429;29;20063;-62
2022/10/20 08:36:07;;;;;;;12.73;10.05;;;;;;;;;;4947167;29;20055;-62
2022/10/20 08:38:34;;;;;;;15.40;11.30;;;;;;;;;;4921218;29;20432;-62
2022/10/20 08:41:00;;;;;;;17.10;10.63;;;;;;;;;;4920007;29;20052;-62
2022/10/20 08:43:27;;;;;;;13.68;9.98;;;;;;;;;;4924001;29;20039;-62
2022/10/20 08:45:53;;;;;;;14.40;9.90;;;;;;;;;;4935877;29;20058;-62
2022/10/20 08:48:25;;;;;;;13.60;9.70;;;;;;;;;;4931378;29;20051;-62
2022/10/20 08:50:56;;;;;;;12.18;9.52;;;;;;;;;;4933755;29;20052;-62
2022/10/20 08:53:24;;;;;;;12.15;8.90;;;;;;;;;;4932601;29;20044;-62
2022/10/20 08:55:50;;;;;;;14.68;9.40;;;;;;;;;;4931774;29;20043;-62
2022/10/20 08:58:21;;;;;;;12.30;9.80;;;;;;;;;;4915440;29;20052;-62
2022/10/20 09:00:47;;;;;;;15.30;10.23;;;;;;;;;;4934724;29;20506;-62
2022/10/20 09:03:18;;;;;;;17.02;10.85;;;;;;;;;;4934562;29;20051;-62
2022/10/20 09:05:47;;;;;;;15.48;9.45;;;;;;;;;;4908979;29;20040;-62
2022/10/20 09:08:13;;;;;;;17.08;10.10;;;;;;;;;;4931721;29;20095;-62
2022/10/20 09:10:41;;;;;;;12.05;9.05;;;;;;;;;;4912362;29;20043;-62
2022/10/20 09:13:19;;;;;;;17.30;9.82;;;;;;;;;;4924640;29;20071;-62
2022/10/20 09:15:46;;;;;;;14.25;9.40;;;;;;;;;;4935662;29;20048;-62
2022/10/20 09:18:13;;;;;;;15.63;9.60;;;;;;;;;;4911169;29;20521;-62
2022/10/20 09:20:39;;;;;;;13.82;9.57;;;;;;;;;;4915534;29;20485;-61
2022/10/20 09:23:05;;;;;;;15.07;10.38;;;;;;;;;;4923297;29;20055;-62
2022/10/20 09:25:32;;;;;;;13.55;8.80;;;;;;;;;;4919379;29;20116;-62
2022/10/20 09:27:58;;;;;;;14.82;9.23;;;;;;;;;;4925437;29;20074;-62
2022/10/20 09:30:34;;;;;;;13.55;8.80;;;;;;;;;;4933669;29;20051;-62
2022/10/20 09:33:14;;;;;;;14.98;8.68;;;;;;;;;;4917158;29;20378;-62
2022/10/20 09:35:40;;;;;;;15.30;9.20;;;;;;;;;;4934076;29;20408;-62
2022/10/20 09:38:09;;;;;;;11.95;8.55;;;;;;;;;;4927550;29;20412;-62
2022/10/20 09:40:35;;;;;;;10.50;8.45;;;;;;;;;;4932957;29;20381;-62
2022/10/20 09:43:06;;;;;;;15.55;8.88;;;;;;;;;;4927833;29;20048;-62
2022/10/20 09:45:34;;;;;;;13.27;8.25;;;;;;;;;;4931611;28;20520;-61
2022/10/20 09:48:37;;;;;;;10.65;8.13;;;11.60;99.90;;;;;;4929005;29;20067;-61
2022/10/20 09:51:04;;;;;;;10.32;8.52;;;;;;;;;;4906395;29;20839;-62
2022/10/20 09:53:35;;;;;;;13.35;8.70;;;;;;;;;;4908340;29;20048;-61
2022/10/20 09:56:01;;;;;;;11.55;8.40;;;;;;;;;;4917483;29;20047;-62
2022/10/20 09:58:32;;;;;;;10.80;8.43;;;;;;;;;;4929008;29;20054;-62
2022/10/20 10:01:02;;;;;;;;;;;12.00;99.90;;;;;;4921100;29;20403;-62
2022/10/20 10:03:28;;;;;;;11.88;8.70;;;;;;;;;;4933179;29;20295;-62
2022/10/20 10:05:58;;;;;;;14.02;8.32;;;;;;;;;;4929205;29;20059;-62
2022/10/20 10:08:29;;;;;;;9.82;7.03;;;;;;;;;;4930230;29;20305;-62
2022/10/20 10:10:59;;;;;;;12.15;7.80;;;;;;;;;;4920112;29;20142;-62
2022/10/20 10:13:27;;;;;;;14.05;8.00;;;;;;;;;;4899112;29;20516;-62
2022/10/20 10:15:58;;;;;;;14.30;8.80;;;;;;;;;;4931311;29;20047;-62
2022/10/20 10:18:24;;;;;;;10.32;7.65;;;;;;;;;;4917318;29;20488;-61
2022/10/20 10:20:58;;;;;;;12.30;7.75;;;;;;;;;;4916842;29;20500;-62
2022/10/20 10:23:25;;;;;;;11.27;8.05;;;;;;;;;;4919337;29;20111;-62
2022/10/20 10:25:52;;;;;;;11.80;7.82;;;;;;;;;;4934081;29;20056;-62
2022/10/20 10:28:50;;;;;;;11.27;8.00;;;;;;;;;;4910504;29;20489;-61
2022/10/20 10:31:16;;;;;;;11.35;7.90;;;;;;;;;;4890634;29;20052;-62
2022/10/20 10:33:42;;;;;;;9.70;6.30;;;;;;;;;;4915105;29;20453;-61
2022/10/20 10:36:18;;;;;;;12.93;8.57;;;;;;;;;;4916489;29;20048;-61
2022/10/20 10:38:44;;;;;;;9.45;7.80;;;;;;;;;;4921104;29;20055;-61
2022/10/20 10:41:42;;;;;;;13.32;7.25;;;;;;;;;;4919540;29;20070;-61
2022/10/20 10:44:20;;;;;;;13.32;8.40;;;;;;;;;;4891275;29;20452;-61
2022/10/20 10:47:01;;;;;;;15.48;8.20;;;;;;;;;;4935396;29;20051;-61
2022/10/20 10:50:04;;;;;;;11.75;8.05;;;13.70;99.90;;;;;;4932523;29;20086;-61
2022/10/20 10:52:36;;;;;;;11.73;8.57;;;;;;;;;;4915096;29;20047;-61
2022/10/20 10:55:04;;;;;;;12.52;8.38;;;;;;;;;;4931448;29;20059;-61
2022/10/20 10:57:49;;;;;;;11.98;8.27;;;;;;;;;;4913564;29;20079;-61
2022/10/20 11:01:00;;;;;;;11.93;8.07;;;13.30;99.90;;;;;;4957091;29;20051;-61
2022/10/20 11:03:36;;;;;;;;;;;13.40;99.90;;;;;;4879286;29;20061;-61
2022/10/20 11:06:05;;;;;;;10.32;7.43;;;;;;;;;;4839670;29;19928;-61
2022/10/20 11:08:41;;;;;;;11.75;7.55;;;;;;;;;;4857690;29;20458;-61
2022/10/20 11:11:07;;;;;;;13.65;8.77;;;;;;;;;;4845276;29;20128;-61
2022/10/20 11:13:36;;;;;;;12.20;8.77;;;;;;;;;;4844990;29;20503;-61
2022/10/20 11:16:11;;;;;;;14.05;9.02;;;;;;;;;;4843396;29;20098;-61
2022/10/20 11:18:50;;;;;;;13.82;7.80;;;;;;;;;;4841358;29;20050;-61
2022/10/20 11:21:31;;;;;;;12.38;8.48;;;;;;;;;;4836940;29;20054;-61
2022/10/20 11:24:06;;;;;;;13.70;8.68;;;;;;;;;;4851167;29;20057;-61
2022/10/20 11:26:33;;;;;;;16.20;8.98;;;;;;;;;;4870202;29;20465;-61
2022/10/20 11:29:00;;;;;;;11.32;8.60;;;;;;;;;;4878234;29;20053;-62
2022/10/20 11:31:41;;;;;;;16.27;8.82;;;;;;;;;;4856264;29;20133;-61
2022/10/20 11:34:25;;;;;;;19.90;9.27;;;;;;;;;;4847189;29;20485;-62
2022/10/20 11:36:59;;;;;;;14.88;8.48;;;;;;;;;;4857956;29;20054;-62
2022/10/20 11:39:41;;;;;;;10.60;8.32;;;;;;;;;;4892482;29;20070;-62
2022/10/20 11:42:16;;;;;;;12.48;8.88;;;;;;;;;;4935847;29;20052;-62
2022/10/20 11:44:43;;;;;;;11.23;8.55;;;;;;;;;;4935994;29;20052;-62
2022/10/20 11:47:11;;;;;;;14.48;8.40;;;;;;;;;;4927863;29;20055;-61
2022/10/20 11:49:39;;;;;;;12.13;8.50;;;;;;;;;;4923877;29;20060;-61
2022/10/20 11:52:08;;;;;;;13.15;8.73;;;;;;;;;;4918617;29;20048;-60
2022/10/20 11:54:49;;;;;;;13.93;9.23;;;;;;;;;;4920971;29;20081;-61
2022/10/20 11:57:34;;;;;;;14.13;9.45;;;;;;;;;;4936482;29;20478;-61
2022/10/20 12:00:19;;;;;;;16.42;9.30;;;;;;;;;;4929145;29;20190;-61
2022/10/20 12:03:26;;;;;;;14.90;9.95;;;12.90;99.90;;;;;;4936366;29;20518;-61
2022/10/20 12:06:05;;;;;;;11.93;9.15;;;;;;;;;;4858986;29;20099;-61
2022/10/20 12:08:40;;;;;;;15.32;10.60;;;;;;;;;;4845241;29;20088;-61
2022/10/20 12:11:13;;;;;;;11.07;8.80;;;;;;;;;;4857287;29;20069;-60
2022/10/20 12:14:09;;;;;;;16.75;10.32;;;;;;;;;;4876421;29;20124;-60
2022/10/20 12:16:53;;;;;;;15.85;10.20;;;;;;;;;;4859686;29;20057;-60
2022/10/20 12:19:19;;;;;;;12.93;9.75;;;;;;;;;;4872890;29;20053;-60
2022/10/20 12:22:00;;;;;;;17.92;11.40;;;;;;;;;;4876886;29;20181;-60
2022/10/20 12:24:34;;;;;;;15.57;11.63;;;;;;;;;;4868506;29;20116;-60
2022/10/20 12:27:09;;;;;;;23.67;10.70;;;;;;;;;;4874555;29;20173;-60
2022/10/20 12:29:35;;;;;;;20.02;11.80;;;;;;;;;;4877215;29;20053;-60
2022/10/20 12:32:28;;;;;;;16.50;12.40;;;12.40;99.90;;;;;;4877461;29;20129;-60
2022/10/20 12:34:55;;;;;;;16.08;12.43;;;;;;;;;;4874631;29;20049;-60
2022/10/20 12:37:24;;;;;;;17.00;12.88;;;;;;;;;;4856284;29;20049;-60
2022/10/20 12:39:54;;;;;;;20.15;12.95;;;;;;;;;;4861741;29;20045;-60
2022/10/20 12:42:20;;;;;;;18.08;13.23;;;;;;;;;;4884950;29;20059;-60
2022/10/20 12:44:46;;;;;;;22.20;12.98;;;;;;;;;;4928132;29;20036;-60
2022/10/20 12:47:18;;;;;;;19.40;12.57;;;;;;;;;;4918148;29;20095;-60
2022/10/20 12:49:56;;;;;;;18.75;13.05;;;;;;;;;;4922033;29;20040;-60
2022/10/20 12:52:31;;;;;;;21.17;13.52;;;;;;;;;;4917488;29;20124;-60
2022/10/20 12:55:08;;;;;;;19.65;12.85;;;;;;;;;;4916715;29;20044;-60
2022/10/20 12:57:40;;;;;;;17.73;14.10;;;;;;;;;;4900774;29;20417;-60
2022/10/20 13:00:07;;;;;;;19.02;12.50;;;;;;;;;;4926156;29;20043;-60
2022/10/20 13:02:44;;;;;;;17.55;12.82;;;;;;;;;;4934164;29;20044;-60
2022/10/20 13:05:12;;;;;;;19.58;13.52;;;;;;;;;;4933514;29;20204;-60
2022/10/20 13:07:48;;;;;;;21.92;15.27;;;;;;;;;;4923226;29;20481;-60
2022/10/20 13:10:29;;;;;;;19.50;13.98;;;;;;;;;;4934566;29;20049;-60
2022/10/20 13:13:01;;;;;;;17.75;12.98;;;;;;;;;;4934955;29;20055;-60
2022/10/20 13:15:34;;;;;;;21.52;14.85;;;;;;;;;;4923262;29;20464;-60
2022/10/20 13:18:03;;;;;;;20.38;13.73;;;;;;;;;;4932175;29;20436;-61
2022/10/20 13:20:41;;;;;;;25.92;15.57;;;;;;;;;;4930173;29;20048;-60
2022/10/20 13:23:12;;;;;;;24.73;15.40;;;;;;;;;;4926694;29;20516;-62
2022/10/20 13:25:54;;;;;;;27.25;15.38;;;;;;;;;;4949027;29;20503;-62
2022/10/20 13:28:22;;;;;;;26.50;15.45;;;;;;;;;;4942848;29;20515;-61
2022/10/20 13:31:29;;;;;;;24.40;15.30;;;11.80;99.90;;;;;;4951800;29;20142;-61
2022/10/20 13:34:03;;;;;;;22.30;15.77;;;;;;;;;;4934889;29;20047;-61
2022/10/20 13:36:32;;;;;;;25.90;16.38;;;;;;;;;;4950893;29;20114;-61
2022/10/20 13:39:04;;;;;;;25.25;16.42;;;;;;;;;;4943698;29;20130;-61
2022/10/20 13:41:51;;;;;;;25.13;16.15;;;11.80;99.90;;;;;;4948209;29;20047;-61
2022/10/20 13:44:17;;;;;;;28.85;17.75;;;;;;;;;;4950385;29;20471;-61
2022/10/20 13:46:46;;;;;;;26.73;17.50;;;;;;;;;;4953115;29;20126;-61
2022/10/20 13:49:15;;;;;;;27.23;16.63;;;;;;;;;;4941888;29;20046;-61
2022/10/20 13:51:46;;;;;;;29.98;18.10;;;;;;;;;;4946638;29;20043;-61
2022/10/20 13:54:18;;;;;;;28.15;17.85;;;;;;;;;;4953197;29;20415;-61
2022/10/20 13:56:47;;;;;;;25.00;17.35;;;;;;;;;;4946308;29;20047;-60
2022/10/20 13:59:13;;;;;;;26.25;17.85;;;;;;;;;;4921190;29;20050;-61
2022/10/20 14:01:39;;;;;;;30.40;19.17;;;;;;;;;;4948103;29;20043;-60
2022/10/20 14:04:25;;;;;;;31.92;19.00;;;12.20;99.90;;;;;;4945990;29;20047;-61
2022/10/20 14:06:51;;;;;;;25.55;17.98;;;;;;;;;;4950921;29;20114;-60
2022/10/20 14:09:19;;;;;;;29.85;18.80;;;;;;;;;;4948314;29;20126;-60
2022/10/20 14:12:12;;;;;;;28.60;17.95;;;;;;;;;;4933045;29;20048;-60
2022/10/20 14:14:42;;;;;;;31.55;19.23;;;;;;;;;;4911956;29;20449;-60
2022/10/20 14:17:08;;;;;;;28.42;18.55;;;;;;;;;;4927576;29;20044;-60
2022/10/20 14:19:34;;;;;;;28.35;18.38;;;;;;;;;;4934107;29;20048;-60
2022/10/20 14:22:10;;;;;;;36.83;19.25;;;;;;;;;;4924097;29;20091;-60
2022/10/20 14:24:37;;;;;;;35.20;20.15;;;;;;;;;;4915213;29;20048;-60
2022/10/20 14:27:04;;;;;;;29.08;19.08;;;;;;;;;;4916162;29;20456;-60
2022/10/20 14:29:32;;;;;;;33.13;19.17;;;;;;;;;;4934219;29;20055;-60
2022/10/20 14:31:59;;;;;;;27.33;18.77;;;;;;;;;;4924263;29;20052;-60
2022/10/20 14:34:29;;;;;;;36.42;20.00;;;;;;;;;;4925333;29;20048;-60
2022/10/20 14:36:56;;;;;;;33.50;19.23;;;;;;;;;;4921693;29;20062;-60
2022/10/20 14:39:22;;;;;;;34.13;20.67;;;;;;;;;;4935304;29;20047;-60